Time Latitude Longitude Accuracy (66% radius in meters) Altitude (meters) Speed (km/hour) Bearing (degrees) Battery (%) GPS flag
10:03:49 60.369288 29.555757 0 0 0 0 1 delete
10:03:48 60.369295 29.555758 0 0 0 0 1 delete
10:03:47 60.369302 29.555763 0 0 0 0 1 delete
10:03:46 60.369307 29.555770 0 0 0 0 1 delete
10:03:45 60.369310 29.555773 0 0 0 0 1 delete
10:03:44 60.369312 29.555778 0 0 0 0 1 delete
10:03:43 60.369313 29.555782 0 0 0 0 1 delete
10:03:42 60.369315 29.555787 0 0 0 0 1 delete
10:03:41 60.369318 29.555788 0 0 0 0 1 delete
10:03:40 60.369320 29.555790 0 0 0 0 1 delete
10:03:39 60.369320 29.555792 0 0 0 0 1 delete
10:03:38 60.369322 29.555792 0 0 0 0 1 delete
10:03:37 60.369323 29.555792 0 0 0 0 1 delete
10:03:36 60.369325 29.555795 0 0 0 0 1 delete
10:03:35 60.369325 29.555800 0 0 0 0 1 delete
10:03:34 60.369327 29.555800 0 0 0 0 1 delete
10:03:33 60.369327 29.555802 0 0 0 0 1 delete
10:03:32 60.369328 29.555803 0 0 0 0 1 delete
10:03:31 60.369328 29.555803 0 0 0 0 1 delete
10:03:30 60.369325 29.555802 0 0 0 0 1 delete
10:03:29 60.369322 29.555798 0 0 0 0 1 delete
10:03:28 60.369318 29.555800 0 0 0 0 1 delete
10:03:27 60.369317 29.555800 0 0 0 0 1 delete
10:03:26 60.369313 29.555800 0 0 0 0 1 delete
10:03:25 60.369308 29.555803 0 0 0 0 1 delete
10:03:24 60.369305 29.555805 0 0 0 0 1 delete
10:03:23 60.369303 29.555807 0 0 0 0 1 delete
10:03:22 60.369302 29.555810 0 0 0 0 1 delete
10:03:21 60.369303 29.555812 0 0 0 0 1 delete
10:03:20 60.369305 29.555813 0 0 0 0 1 delete
10:03:19 60.369307 29.555817 0 0 0 0 1 delete
10:03:18 60.369307 29.555822 0 0 0 0 1 delete
10:03:17 60.369308 29.555823 0 0 0 0 1 delete
10:03:16 60.369312 29.555823 0 0 0 0 1 delete
10:03:15 60.369313 29.555820 0 0 0 0 1 delete
10:03:14 60.369318 29.555815 0 0 0 0 1 delete
10:03:13 60.369322 29.555808 0 0 0 0 1 delete
10:03:12 60.369327 29.555803 0 0 0 0 1 delete
10:03:11 60.369332 29.555802 0 0 0 0 1 delete
10:03:10 60.369338 29.555800 0 0 0 0 1 delete
10:03:09 60.369345 29.555798 0 0 0 0 1 delete
10:03:08 60.369350 29.555795 0 0 0 0 1 delete
10:03:07 60.369355 29.555793 0 0 0 0 1 delete
10:03:06 60.369362 29.555792 0 0 0 0 1 delete
10:03:05 60.369367 29.555790 0 0 0 0 1 delete
10:03:04 60.369375 29.555783 0 0 0 0 1 delete
10:03:03 60.369385 29.555775 0 0 0 0 1 delete
10:03:02 60.369393 29.555765 0 0 0 0 1 delete
10:03:01 60.369402 29.555753 0 0 0 0 1 delete
10:03:00 60.369410 29.555742 0 0 0 0 1 delete